createdAt,value
2024-03-05T00:00:11.975Z,72.37
2024-03-05T00:02:41.817Z,72.26
2024-03-05T00:05:09.967Z,72.41
2024-03-05T00:07:39.522Z,72.48
2024-03-05T00:10:06.646Z,72.48
2024-03-05T00:12:34.580Z,72.49
2024-03-05T00:15:01.550Z,72.21
2024-03-05T00:17:28.033Z,72.34
2024-03-05T00:19:54.640Z,72.18
2024-03-05T00:22:21.357Z,72.30
2024-03-05T00:24:47.887Z,72.37
2024-03-05T00:27:15.143Z,72.35
2024-03-05T00:29:42.232Z,72.32
2024-03-05T00:32:08.800Z,72.39
2024-03-05T00:34:35.435Z,72.44
2024-03-05T00:37:01.954Z,72.49
2024-03-05T00:39:28.878Z,72.24
2024-03-05T00:41:55.473Z,72.24
2024-03-05T00:44:25.047Z,72.27
2024-03-05T00:46:53.866Z,72.28
2024-03-05T00:49:20.741Z,72.30
2024-03-05T00:51:48.615Z,72.22
2024-03-05T00:54:15.405Z,72.56
2024-03-05T00:56:42.020Z,72.45
2024-03-05T00:59:09.530Z,72.33
2024-03-05T01:01:36.094Z,72.38
2024-03-05T01:04:02.684Z,72.18
2024-03-05T01:06:29.213Z,72.42
2024-03-05T01:08:56.753Z,72.39
2024-03-05T01:11:23.401Z,72.46
2024-03-05T01:13:49.930Z,72.35
2024-03-05T01:16:16.609Z,72.35
2024-03-05T01:18:43.128Z,72.51
2024-03-05T01:21:09.749Z,72.53
2024-03-05T01:23:36.382Z,72.48
2024-03-05T01:26:04.090Z,72.49
2024-03-05T01:28:30.817Z,72.56
2024-03-05T01:30:59.911Z,72.48
2024-03-05T01:33:26.753Z,72.11
2024-03-05T01:35:53.515Z,72.47
2024-03-05T01:38:21.381Z,72.32
2024-03-05T01:40:48.057Z,72.31
2024-03-05T01:43:16.061Z,72.09
2024-03-05T01:45:43.664Z,72.42
2024-03-05T01:48:11.009Z,72.42
2024-03-05T01:50:37.667Z,72.24
2024-03-05T01:53:05.384Z,72.43
2024-03-05T01:55:31.902Z,72.50
2024-03-05T01:58:05.041Z,72.34
2024-03-05T02:00:32.405Z,72.37
2024-03-05T02:02:59.013Z,72.08
2024-03-05T02:05:25.517Z,72.54
2024-03-05T02:07:55.298Z,72.30
2024-03-05T02:10:22.258Z,72.79
2024-03-05T02:12:48.833Z,72.29
2024-03-05T02:15:15.586Z,72.36
2024-03-05T02:17:43.593Z,72.33
2024-03-05T02:20:11.145Z,72.63
2024-03-05T02:22:42.142Z,72.39
2024-03-05T02:25:09.853Z,72.38
2024-03-05T02:27:37.768Z,72.38
2024-03-05T02:30:11.190Z,72.28
2024-03-05T02:32:39.654Z,72.61
2024-03-05T02:35:06.365Z,72.31
2024-03-05T02:37:32.952Z,72.39
2024-03-05T02:40:00.944Z,72.82
2024-03-05T02:42:27.447Z,72.68
2024-03-05T02:44:53.968Z,72.47
2024-03-05T02:47:20.474Z,72.52
2024-03-05T02:49:47.001Z,72.44
2024-03-05T02:52:15.052Z,72.35
2024-03-05T02:54:41.541Z,72.34
2024-03-05T02:57:08.375Z,72.35
2024-03-05T02:59:34.866Z,72.41
2024-03-05T03:02:01.810Z,72.67
2024-03-05T03:04:28.416Z,72.37
2024-03-05T03:06:54.909Z,72.59
2024-03-05T03:09:21.718Z,72.40
2024-03-05T03:11:48.954Z,72.25
2024-03-05T03:14:15.597Z,72.51
2024-03-05T03:16:44.772Z,72.61
2024-03-05T03:19:11.904Z,72.52
2024-03-05T03:21:38.394Z,72.47
2024-03-05T03:24:05.246Z,72.71
2024-03-05T03:26:31.755Z,72.49
2024-03-05T03:28:58.356Z,72.56
2024-03-05T03:31:26.606Z,72.68
2024-03-05T03:33:53.215Z,72.56
2024-03-05T03:36:24.733Z,72.44
2024-03-05T03:38:51.872Z,72.65
2024-03-05T03:41:18.777Z,72.51
2024-03-05T03:43:45.320Z,72.47
2024-03-05T03:46:13.670Z,72.45
2024-03-05T03:48:40.294Z,72.49
2024-03-05T03:51:06.872Z,72.49
2024-03-05T03:53:36.592Z,72.31
2024-03-05T03:56:03.672Z,72.55
2024-03-05T03:58:31.835Z,72.70
2024-03-05T04:01:00.196Z,72.35
2024-03-05T04:03:26.927Z,72.47
2024-03-05T04:05:53.779Z,72.45
2024-03-05T04:08:20.241Z,72.49
2024-03-05T04:10:47.260Z,72.43
2024-03-05T04:13:14.059Z,72.61
2024-03-05T04:15:40.703Z,72.53
2024-03-05T04:18:07.306Z,72.40
2024-03-05T04:20:33.896Z,72.47
2024-03-05T04:23:00.446Z,72.59
2024-03-05T04:25:35.537Z,72.51
2024-03-05T04:28:11.656Z,72.39
2024-03-05T04:30:43.061Z,72.60
2024-03-05T04:33:10.630Z,72.50
2024-03-05T04:35:38.082Z,72.34
2024-03-05T04:38:06.752Z,72.48
2024-03-05T04:40:36.560Z,72.55
2024-03-05T04:43:03.178Z,72.53
2024-03-05T04:45:30.060Z,72.64
2024-03-05T04:47:56.810Z,72.30
2024-03-05T04:50:23.409Z,72.79
2024-03-05T04:52:50.113Z,72.50
2024-03-05T04:55:16.837Z,72.43
2024-03-05T04:57:43.471Z,72.50
2024-03-05T05:00:21.167Z,72.49
2024-03-05T05:02:49.038Z,72.65
2024-03-05T05:05:16.870Z,72.70
2024-03-05T05:07:44.620Z,72.60
2024-03-05T05:10:11.550Z,72.63
2024-03-05T05:12:39.531Z,72.55
2024-03-05T05:15:07.522Z,72.63
2024-03-05T05:17:34.371Z,72.60
2024-03-05T05:20:02.006Z,72.57
2024-03-05T05:22:28.881Z,72.55
2024-03-05T05:24:55.463Z,72.75
2024-03-05T05:27:23.034Z,72.38
2024-03-05T05:29:50.908Z,72.67
2024-03-05T05:32:17.842Z,72.70
2024-03-05T05:34:44.686Z,72.53
2024-03-05T05:37:11.290Z,72.75
2024-03-05T05:39:38.225Z,72.55
2024-03-05T05:42:05.797Z,72.52
2024-03-05T05:44:32.459Z,72.67
2024-03-05T05:46:59.060Z,72.48
2024-03-05T05:49:25.714Z,72.67
2024-03-05T05:51:52.469Z,72.81
2024-03-05T05:54:21.799Z,72.68
2024-03-05T05:56:49.829Z,72.57
2024-03-05T05:59:16.941Z,72.83
2024-03-05T06:01:43.892Z,72.35
2024-03-05T06:04:12.606Z,72.51
2024-03-05T06:06:39.116Z,72.75
2024-03-05T06:09:11.645Z,72.37
2024-03-05T06:11:41.329Z,72.52
2024-03-05T06:14:08.355Z,72.68
2024-03-05T06:16:35.335Z,72.62
2024-03-05T06:19:02.266Z,72.79
2024-03-05T06:21:29.145Z,72.71
2024-03-05T06:23:55.672Z,72.53
2024-03-05T06:26:22.637Z,72.55
2024-03-05T06:28:49.152Z,72.60
2024-03-05T06:31:15.948Z,72.87
2024-03-05T06:33:42.535Z,72.72
2024-03-05T06:36:09.074Z,72.81
2024-03-05T06:38:35.741Z,72.44
2024-03-05T06:41:03.044Z,72.72
2024-03-05T06:43:39.203Z,72.45
2024-03-05T06:46:05.980Z,72.69
2024-03-05T06:48:34.261Z,72.59
2024-03-05T06:51:06.180Z,72.67
2024-03-05T06:53:51.395Z,72.51
2024-03-05T06:56:36.343Z,72.73
2024-03-05T06:59:05.082Z,72.86
2024-03-05T07:01:33.639Z,72.71
2024-03-05T07:04:00.684Z,72.84
2024-03-05T07:06:27.196Z,72.48
2024-03-05T07:08:56.048Z,72.60
2024-03-05T07:11:22.924Z,72.51
2024-03-05T07:13:50.111Z,72.43
2024-03-05T07:16:18.197Z,72.33
2024-03-05T07:18:49.305Z,72.65
2024-03-05T07:21:18.180Z,72.53
2024-03-05T07:23:47.319Z,72.49
2024-03-05T07:26:14.193Z,72.69
2024-03-05T07:28:42.096Z,72.76
2024-03-05T07:31:08.729Z,72.67
2024-03-05T07:33:36.734Z,72.84
2024-03-05T07:36:03.549Z,72.76
2024-03-05T07:38:30.028Z,72.63
2024-03-05T07:40:56.731Z,72.64
2024-03-05T07:43:23.377Z,72.90
2024-03-05T07:45:50.963Z,72.85
2024-03-05T07:48:17.719Z,72.74
2024-03-05T07:50:44.988Z,72.79
2024-03-05T07:53:11.559Z,72.79
2024-03-05T07:55:46.371Z,72.95
2024-03-05T07:58:14.113Z,72.41
2024-03-05T08:00:40.868Z,72.72
2024-03-05T08:03:07.456Z,72.66
2024-03-05T08:05:35.837Z,72.83
2024-03-05T08:08:02.571Z,72.76
2024-03-05T08:10:29.275Z,72.89
2024-03-05T08:12:56.776Z,72.79
2024-03-05T08:15:25.637Z,72.57
2024-03-05T08:17:52.805Z,72.96
2024-03-05T08:20:20.530Z,72.74
2024-03-05T08:22:47.898Z,72.82
2024-03-05T08:25:15.198Z,72.70
2024-03-05T08:27:42.714Z,72.57
2024-03-05T08:30:17.369Z,72.71
2024-03-05T08:32:44.895Z,72.87
2024-03-05T08:35:12.715Z,72.43
2024-03-05T08:37:41.775Z,74.05
2024-03-05T08:40:10.786Z,74.43
2024-03-05T08:42:37.853Z,74.41
2024-03-05T08:45:05.545Z,74.15
2024-03-05T08:47:34.612Z,73.79
2024-03-05T08:50:01.224Z,73.14
2024-03-05T08:52:27.760Z,73.23
2024-03-05T08:54:54.263Z,73.26
2024-03-05T08:57:20.794Z,73.18
2024-03-05T08:59:47.294Z,73.11
2024-03-05T09:02:14.328Z,73.04
2024-03-05T09:04:40.950Z,73.23
2024-03-05T09:07:07.602Z,73.17
2024-03-05T09:09:34.141Z,73.29
2024-03-05T09:12:00.767Z,73.10
2024-03-05T09:14:27.306Z,72.90
2024-03-05T09:16:54.758Z,73.29
2024-03-05T09:19:23.014Z,73.27
2024-03-05T09:21:50.423Z,73.12
2024-03-05T09:24:17.516Z,72.95
2024-03-05T09:26:44.117Z,72.78
2024-03-05T09:29:12.864Z,72.88
2024-03-05T09:31:40.732Z,73.04
2024-03-05T09:34:07.305Z,72.84
2024-03-05T09:36:37.657Z,73.09
2024-03-05T09:39:10.008Z,73.02
2024-03-05T09:41:41.516Z,73.10
2024-03-05T09:44:09.905Z,72.80
2024-03-05T09:46:46.658Z,73.02
2024-03-05T09:49:21.827Z,72.75
2024-03-05T09:51:50.053Z,72.76
2024-03-05T09:54:16.587Z,73.06
2024-03-05T09:56:46.782Z,72.82
2024-03-05T09:59:14.243Z,72.88
2024-03-05T10:01:42.792Z,72.68
2024-03-05T10:04:12.348Z,72.64
2024-03-05T10:06:39.913Z,72.92
2024-03-05T10:09:09.979Z,72.94
2024-03-05T10:11:37.416Z,73.01
2024-03-05T10:14:06.833Z,72.94
2024-03-05T10:16:35.240Z,72.83
2024-03-05T10:19:21.134Z,72.91
2024-03-05T10:21:50.562Z,73.05
2024-03-05T10:24:28.139Z,73.15
2024-03-05T10:26:55.570Z,73.25
2024-03-05T10:29:22.093Z,73.22
2024-03-05T10:31:50.680Z,73.18
2024-03-05T10:34:19.874Z,73.27
2024-03-05T10:36:48.230Z,72.92
2024-03-05T10:39:14.900Z,73.38
2024-03-05T10:41:47.422Z,73.15
2024-03-05T10:44:18.232Z,73.02
2024-03-05T10:46:44.878Z,73.05
2024-03-05T10:49:12.388Z,73.30
2024-03-05T10:51:39.712Z,73.12
2024-03-05T10:54:06.507Z,73.17
2024-03-05T10:56:39.713Z,72.90
2024-03-05T10:59:16.917Z,73.01
2024-03-05T11:01:45.119Z,73.02
2024-03-05T11:04:21.968Z,73.14
2024-03-05T11:06:53.419Z,73.15
2024-03-05T11:09:23.453Z,73.33
2024-03-05T11:11:53.899Z,73.27
2024-03-05T11:14:20.396Z,73.31
2024-03-05T11:16:47.981Z,73.39
2024-03-05T11:19:14.512Z,73.19
2024-03-05T11:21:42.926Z,73.53
2024-03-05T11:24:09.473Z,73.46
2024-03-05T11:26:36.039Z,73.34
2024-03-05T11:29:06.958Z,73.30
2024-03-05T11:31:33.887Z,73.59
2024-03-05T11:34:03.668Z,73.51
2024-03-05T11:36:36.365Z,73.38
2024-03-05T11:39:10.489Z,73.57
2024-03-05T11:41:38.314Z,73.65
2024-03-05T11:44:05.047Z,73.76
2024-03-05T11:46:44.390Z,73.58
2024-03-05T11:49:11.492Z,73.52
2024-03-05T11:51:39.717Z,73.60
2024-03-05T11:54:06.461Z,73.63
2024-03-05T11:56:33.132Z,73.70
2024-03-05T11:58:59.887Z,73.57
2024-03-05T12:01:26.506Z,73.72
2024-03-05T12:04:09.624Z,73.42
2024-03-05T12:06:37.102Z,73.41
2024-03-05T12:09:20.072Z,73.66
2024-03-05T12:12:24.113Z,73.75
2024-03-05T12:14:55.108Z,73.84
2024-03-05T12:17:23.894Z,73.53
2024-03-05T12:20:06.167Z,73.78
2024-03-05T12:22:32.775Z,73.67
2024-03-05T12:24:59.419Z,73.68
2024-03-05T12:27:25.949Z,73.66
2024-03-05T12:29:53.360Z,73.80
2024-03-05T12:32:20.074Z,73.86
2024-03-05T12:34:48.463Z,73.96
2024-03-05T12:37:15.120Z,73.81
2024-03-05T12:39:41.724Z,73.79
2024-03-05T12:42:09.487Z,74.09
2024-03-05T12:44:36.088Z,73.81
2024-03-05T12:47:19.508Z,73.75
2024-03-05T12:49:47.435Z,73.93
2024-03-05T12:52:21.291Z,73.59
2024-03-05T12:54:57.890Z,73.96
2024-03-05T12:57:28.582Z,74.05
2024-03-05T12:59:55.230Z,74.07
2024-03-05T13:02:21.813Z,73.85
2024-03-05T13:04:48.444Z,74.08
2024-03-05T13:07:15.456Z,73.95
2024-03-05T13:09:42.032Z,73.60
2024-03-05T13:12:08.908Z,73.96
2024-03-05T13:14:35.513Z,73.68
2024-03-05T13:17:02.051Z,73.99
2024-03-05T13:19:28.836Z,73.68
2024-03-05T13:21:55.501Z,73.87
2024-03-05T13:24:22.722Z,73.72
2024-03-05T13:26:49.302Z,73.73
2024-03-05T13:29:15.844Z,74.12
2024-03-05T13:31:42.476Z,74.02
2024-03-05T13:34:12.555Z,74.05
2024-03-05T13:36:39.797Z,74.08
2024-03-05T13:39:12.005Z,73.66
2024-03-05T13:41:39.494Z,74.21
2024-03-05T13:44:07.703Z,74.02
2024-03-05T13:46:40.607Z,74.16
2024-03-05T13:49:16.979Z,73.89
2024-03-05T13:51:43.831Z,74.12
2024-03-05T13:54:10.598Z,73.86
2024-03-05T13:56:37.173Z,74.12
2024-03-05T13:59:04.674Z,74.26
2024-03-05T14:01:32.376Z,73.90
2024-03-05T14:03:58.970Z,73.93
2024-03-05T14:06:26.005Z,74.06
2024-03-05T14:08:53.035Z,74.15
2024-03-05T14:11:19.757Z,74.00
2024-03-05T14:13:46.569Z,74.02
2024-03-05T14:16:16.101Z,73.99
2024-03-05T14:18:44.633Z,74.02
2024-03-05T14:21:11.537Z,74.26
2024-03-05T14:23:41.036Z,74.01
2024-03-05T14:26:07.858Z,74.24
2024-03-05T14:28:34.535Z,74.02
2024-03-05T14:31:01.617Z,74.48
2024-03-05T14:33:28.118Z,74.44
2024-03-05T14:35:54.667Z,74.50
2024-03-05T14:38:22.192Z,74.27
2024-03-05T14:40:55.504Z,74.20
2024-03-05T14:43:23.118Z,74.10
2024-03-05T14:45:50.769Z,74.16
2024-03-05T14:48:17.623Z,74.21
2024-03-05T14:50:44.134Z,74.02
2024-03-05T14:53:10.697Z,74.31
2024-03-05T14:55:37.394Z,74.32
2024-03-05T14:58:05.833Z,74.25
2024-03-05T15:00:32.478Z,74.12
2024-03-05T15:02:59.391Z,74.51
2024-03-05T15:05:27.068Z,74.26
2024-03-05T15:07:56.640Z,74.44
2024-03-05T15:10:23.571Z,74.18
2024-03-05T15:12:51.135Z,74.48
2024-03-05T15:15:18.957Z,74.40
2024-03-05T15:17:46.782Z,74.14
2024-03-05T15:20:14.587Z,74.22
2024-03-05T15:22:44.712Z,74.52
2024-03-05T15:25:14.669Z,73.99
2024-03-05T15:27:45.626Z,74.40
2024-03-05T15:30:14.419Z,74.39
2024-03-05T15:32:47.508Z,74.10
2024-03-05T15:35:14.622Z,74.29
2024-03-05T15:37:43.457Z,74.31
2024-03-05T15:40:18.319Z,74.23
2024-03-05T15:42:48.703Z,74.25
2024-03-05T15:45:15.300Z,74.19
2024-03-05T15:47:42.640Z,74.40
2024-03-05T15:50:19.192Z,74.45
2024-03-05T15:52:49.887Z,74.12
2024-03-05T15:55:18.191Z,74.01
2024-03-05T15:58:03.488Z,74.43
2024-03-05T16:00:37.271Z,74.33
2024-03-05T16:03:13.782Z,74.27
2024-03-05T16:05:59.807Z,74.13
2024-03-05T16:08:31.138Z,74.22
2024-03-05T16:11:00.063Z,74.30
2024-03-05T16:13:30.560Z,74.31
2024-03-05T16:15:57.480Z,74.32
2024-03-05T16:18:24.040Z,74.40
2024-03-05T16:20:52.444Z,74.26
2024-03-05T16:23:19.087Z,74.35
2024-03-05T16:25:45.632Z,74.49
2024-03-05T16:28:14.117Z,74.56
2024-03-05T16:30:40.870Z,74.63
2024-03-05T16:33:07.825Z,74.59
2024-03-05T16:35:36.588Z,74.52
2024-03-05T16:38:07.232Z,74.69
2024-03-05T16:40:36.486Z,74.46
2024-03-05T16:43:04.041Z,74.45
2024-03-05T16:45:30.634Z,74.48
2024-03-05T16:48:04.824Z,74.67
2024-03-05T16:50:31.523Z,74.49
2024-03-05T16:52:58.858Z,74.45
2024-03-05T16:55:27.099Z,74.38
2024-03-05T16:57:55.420Z,74.32
2024-03-05T17:00:24.345Z,74.44
2024-03-05T17:02:56.811Z,74.58
2024-03-05T17:05:33.564Z,74.45
2024-03-05T17:08:07.866Z,74.83
2024-03-05T17:10:35.166Z,74.63
2024-03-05T17:13:05.384Z,74.72
2024-03-05T17:15:38.830Z,74.32
2024-03-05T17:18:06.358Z,74.77
2024-03-05T17:20:34.200Z,74.39
2024-03-05T17:23:03.208Z,74.56
2024-03-05T17:25:33.382Z,74.75
2024-03-05T17:28:00.226Z,74.65
2024-03-05T17:30:26.699Z,74.51
2024-03-05T17:32:53.318Z,74.51
2024-03-05T17:35:19.901Z,74.69
2024-03-05T17:37:47.005Z,74.72
2024-03-05T17:40:14.466Z,74.59
2024-03-05T17:42:44.432Z,74.82
2024-03-05T17:45:12.038Z,74.65
2024-03-05T17:47:40.033Z,74.71
2024-03-05T17:50:10.761Z,74.84
2024-03-05T17:52:37.436Z,74.41
2024-03-05T17:55:06.937Z,74.58
2024-03-05T17:57:39.381Z,74.78
2024-03-05T18:00:15.999Z,74.63
2024-03-05T18:02:43.325Z,74.59
2024-03-05T18:05:11.033Z,74.90
2024-03-05T18:07:38.249Z,74.98
2024-03-05T18:10:09.435Z,74.76
2024-03-05T18:12:36.063Z,74.81
2024-03-05T18:15:02.752Z,74.85
2024-03-05T18:17:31.128Z,74.82
2024-03-05T18:19:57.880Z,74.91
2024-03-05T18:22:25.454Z,74.75
2024-03-05T18:24:53.336Z,74.94
2024-03-05T18:27:19.914Z,74.86
2024-03-05T18:29:46.730Z,74.84
2024-03-05T18:32:14.584Z,74.67
2024-03-05T18:34:43.719Z,74.84
2024-03-05T18:37:12.543Z,74.95
2024-03-05T18:39:39.004Z,74.96
2024-03-05T18:42:06.407Z,74.90
2024-03-05T18:44:34.349Z,74.82
2024-03-05T18:47:01.047Z,75.04
2024-03-05T18:49:28.934Z,74.93
2024-03-05T18:51:56.576Z,74.83
2024-03-05T18:54:23.320Z,74.72
2024-03-05T18:56:49.886Z,74.80
2024-03-05T18:59:18.316Z,74.73
2024-03-05T19:01:46.472Z,74.92
2024-03-05T19:04:13.022Z,74.76
2024-03-05T19:06:40.606Z,74.63
2024-03-05T19:09:09.769Z,74.93
2024-03-05T19:11:37.047Z,74.71
2024-03-05T19:14:06.133Z,74.67
2024-03-05T19:16:32.739Z,75.14
2024-03-05T19:19:00.184Z,75.43
2024-03-05T19:21:27.441Z,75.21
2024-03-05T19:23:53.982Z,75.00
2024-03-05T19:26:20.842Z,75.11
2024-03-05T19:28:47.476Z,75.11
2024-03-05T19:31:14.649Z,74.55
2024-03-05T19:33:41.254Z,74.87
2024-03-05T19:36:09.816Z,75.06
2024-03-05T19:38:38.787Z,74.86
2024-03-05T19:41:05.521Z,74.88
2024-03-05T19:43:36.075Z,74.94
2024-03-05T19:46:04.095Z,75.18
2024-03-05T19:48:30.850Z,74.82
2024-03-05T19:50:57.345Z,74.88
2024-03-05T19:53:24.240Z,74.80
2024-03-05T19:55:50.841Z,74.31
2024-03-05T19:58:18.437Z,74.89
2024-03-05T20:00:45.077Z,74.61
2024-03-05T20:03:12.949Z,74.93
2024-03-05T20:05:40.300Z,74.87
2024-03-05T20:08:07.243Z,75.01
2024-03-05T20:10:34.195Z,74.99
2024-03-05T20:13:00.748Z,74.84
2024-03-05T20:15:27.343Z,74.93
2024-03-05T20:17:54.046Z,74.91
2024-03-05T20:20:21.855Z,74.97
2024-03-05T20:22:49.194Z,74.96
2024-03-05T20:25:19.180Z,74.96
2024-03-05T20:27:50.200Z,74.93
2024-03-05T20:30:17.388Z,74.82
2024-03-05T20:32:44.373Z,75.01
2024-03-05T20:35:18.304Z,74.86
2024-03-05T20:37:48.802Z,74.94
2024-03-05T20:40:15.944Z,74.94
2024-03-05T20:42:43.934Z,74.85
2024-03-05T20:45:14.217Z,75.11
2024-03-05T20:47:41.107Z,75.02
2024-03-05T20:50:08.980Z,74.69
2024-03-05T20:52:36.270Z,74.88
2024-03-05T20:55:05.016Z,74.99
2024-03-05T20:57:36.792Z,74.95
2024-03-05T21:00:13.250Z,74.93
2024-03-05T21:02:40.317Z,75.04
2024-03-05T21:05:07.615Z,74.99
2024-03-05T21:07:34.810Z,74.84
2024-03-05T21:10:07.190Z,74.81
2024-03-05T21:12:38.089Z,74.81
2024-03-05T21:15:05.224Z,74.97
2024-03-05T21:17:32.350Z,75.19
2024-03-05T21:19:59.291Z,74.96
2024-03-05T21:22:25.922Z,74.83
2024-03-05T21:24:52.437Z,75.16
2024-03-05T21:27:21.694Z,75.30
2024-03-05T21:29:50.494Z,75.11
2024-03-05T21:32:17.030Z,75.20
2024-03-05T21:34:43.868Z,74.91
2024-03-05T21:37:10.537Z,75.31
2024-03-05T21:39:37.073Z,74.80
2024-03-05T21:42:04.517Z,75.20
2024-03-05T21:44:37.575Z,75.04
2024-03-05T21:47:08.854Z,75.26
2024-03-05T21:49:35.598Z,74.94
2024-03-05T21:52:02.233Z,74.94
2024-03-05T21:54:29.358Z,74.99
2024-03-05T21:56:56.357Z,75.01
2024-03-05T21:59:22.934Z,75.14
2024-03-05T22:01:51.446Z,74.95
2024-03-05T22:04:18.953Z,75.34
2024-03-05T22:06:45.502Z,75.32
2024-03-05T22:09:12.228Z,74.99
2024-03-05T22:11:42.297Z,75.20
2024-03-05T22:14:10.786Z,75.09
2024-03-05T22:16:38.135Z,75.02
2024-03-05T22:19:05.662Z,75.41
2024-03-05T22:21:32.699Z,74.75
2024-03-05T22:24:02.308Z,75.04
2024-03-05T22:26:28.937Z,75.06
2024-03-05T22:28:55.951Z,75.16
2024-03-05T22:31:22.982Z,75.15
2024-03-05T22:33:53.292Z,74.98
2024-03-05T22:36:19.809Z,74.89
2024-03-05T22:38:46.978Z,75.10
2024-03-05T22:41:13.769Z,75.09
2024-03-05T22:43:40.578Z,75.14
2024-03-05T22:46:07.149Z,75.31
2024-03-05T22:48:33.619Z,75.26
2024-03-05T22:51:00.528Z,75.34
2024-03-05T22:53:27.196Z,75.07
2024-03-05T22:55:53.719Z,75.19
2024-03-05T22:58:20.420Z,75.29
2024-03-05T23:00:51.542Z,75.29
2024-03-05T23:03:18.588Z,74.96
2024-03-05T23:05:46.546Z,74.81
2024-03-05T23:08:13.645Z,75.01
2024-03-05T23:10:40.300Z,75.16
2024-03-05T23:13:06.877Z,75.12
2024-03-05T23:15:34.692Z,75.17
2024-03-05T23:18:04.436Z,75.14
2024-03-05T23:20:31.116Z,75.67
2024-03-05T23:22:57.739Z,74.97
2024-03-05T23:25:24.291Z,75.27
2024-03-05T23:27:51.139Z,74.83
2024-03-05T23:30:18.069Z,75.04
2024-03-05T23:32:45.224Z,75.02
2024-03-05T23:35:12.504Z,75.17
2024-03-05T23:37:40.035Z,75.26
2024-03-05T23:40:07.602Z,74.81
2024-03-05T23:42:34.574Z,74.99
2024-03-05T23:45:01.503Z,75.08
2024-03-05T23:47:28.276Z,75.12
2024-03-05T23:49:54.876Z,75.03
2024-03-05T23:52:21.412Z,75.02
2024-03-05T23:54:47.943Z,75.34
2024-03-05T23:57:15.231Z,75.07
2024-03-05T23:59:41.998Z,75.07
